createdAt,value
2023-03-04T00:02:19.226Z,6.20
2023-03-04T00:04:46.124Z,6.20
2023-03-04T00:07:16.885Z,6.20
2023-03-04T00:09:44.804Z,6.20
2023-03-04T00:12:11.957Z,6.20
2023-03-04T00:14:38.909Z,6.20
2023-03-04T00:17:07.113Z,6.20
2023-03-04T00:19:35.184Z,6.20
2023-03-04T00:22:02.560Z,6.20
2023-03-04T00:24:29.668Z,6.20
2023-03-04T00:26:56.680Z,6.20
2023-03-04T00:29:24.004Z,6.10
2023-03-04T00:31:51.018Z,6.10
2023-03-04T00:34:18.141Z,6.10
2023-03-04T00:36:45.203Z,6.10
2023-03-04T00:39:12.533Z,6.20
2023-03-04T00:41:39.783Z,6.10
2023-03-04T00:44:08.508Z,6.20
2023-03-04T00:46:35.837Z,6.20
2023-03-04T00:49:02.813Z,6.20
2023-03-04T00:51:29.815Z,6.20
2023-03-04T00:53:58.518Z,6.20
2023-03-04T00:56:26.630Z,6.20
2023-03-04T00:58:53.613Z,6.10
2023-03-04T01:01:20.646Z,6.10
2023-03-04T01:03:47.559Z,6.10
2023-03-04T01:06:14.659Z,6.10
2023-03-04T01:08:41.609Z,6.10
2023-03-04T01:11:08.588Z,6.10
2023-03-04T01:13:35.594Z,6.10
2023-03-04T01:16:03.923Z,6.10
2023-03-04T01:18:32.319Z,6.10
2023-03-04T01:20:59.752Z,6.00
2023-03-04T01:23:29.629Z,6.00
2023-03-04T01:25:56.700Z,6.00
2023-03-04T01:28:25.291Z,6.10
2023-03-04T01:30:52.280Z,6.00
2023-03-04T01:33:19.334Z,6.00
2023-03-04T01:35:46.326Z,6.00
2023-03-04T01:38:13.373Z,6.10
2023-03-04T01:40:40.723Z,6.10
2023-03-04T01:43:08.038Z,6.10
2023-03-04T01:45:40.082Z,6.00
2023-03-04T01:48:09.314Z,6.00
2023-03-04T01:50:36.342Z,6.00
2023-03-04T01:53:03.895Z,6.00
2023-03-04T01:55:31.040Z,6.00
2023-03-04T01:57:57.993Z,6.00
2023-03-04T02:00:25.071Z,5.90
2023-03-04T02:02:53.893Z,5.90
2023-03-04T02:05:21.660Z,5.90
2023-03-04T02:07:49.483Z,5.90
2023-03-04T02:10:16.531Z,5.90
2023-03-04T02:12:44.380Z,5.90
2023-03-04T02:15:11.909Z,5.90
2023-03-04T02:17:39.280Z,5.90
2023-03-04T02:20:06.275Z,5.80
2023-03-04T02:22:36.102Z,5.80
2023-03-04T02:25:13.381Z,5.80
2023-03-04T02:27:40.424Z,5.80
2023-03-04T02:30:07.720Z,5.80
2023-03-04T02:32:34.793Z,5.80
2023-03-04T02:35:01.795Z,5.80
2023-03-04T02:37:28.971Z,5.80
2023-03-04T02:39:56.173Z,5.80
2023-03-04T02:42:23.122Z,5.80
2023-03-04T02:44:50.653Z,5.80
2023-03-04T02:47:20.078Z,5.70
2023-03-04T02:49:48.510Z,5.70
2023-03-04T02:52:21.599Z,5.70
2023-03-04T02:54:48.618Z,5.70
2023-03-04T02:57:17.122Z,5.70
2023-03-04T02:59:47.834Z,5.60
2023-03-04T03:02:19.531Z,5.60
2023-03-04T03:04:46.597Z,5.60
2023-03-04T03:07:16.642Z,5.60
2023-03-04T03:09:43.967Z,5.60
2023-03-04T03:12:11.054Z,5.60
2023-03-04T03:14:38.404Z,5.60
2023-03-04T03:17:07.618Z,5.60
2023-03-04T03:19:34.587Z,5.60
2023-03-04T03:22:04.417Z,5.60
2023-03-04T03:24:31.481Z,5.60
2023-03-04T03:26:58.461Z,5.50
2023-03-04T03:29:25.816Z,5.60
2023-03-04T03:31:53.294Z,5.50
2023-03-04T03:34:21.318Z,5.50
2023-03-04T03:36:49.249Z,5.50
2023-03-04T03:39:16.337Z,5.50
2023-03-04T03:41:43.406Z,5.50
2023-03-04T03:44:10.372Z,5.50
2023-03-04T03:46:37.337Z,5.50
2023-03-04T03:49:04.232Z,5.50
2023-03-04T03:51:31.230Z,5.50
2023-03-04T03:53:58.143Z,5.40
2023-03-04T03:56:25.073Z,5.40
2023-03-04T03:58:52.002Z,5.40
2023-03-04T04:01:19.027Z,5.40
2023-03-04T04:03:46.144Z,5.30
2023-03-04T04:06:13.126Z,5.30
2023-03-04T04:08:40.203Z,5.30
2023-03-04T04:11:09.057Z,5.30
2023-03-04T04:13:38.875Z,5.20
2023-03-04T04:16:06.556Z,5.20
2023-03-04T04:18:33.504Z,5.20
2023-03-04T04:21:00.527Z,5.20
2023-03-04T04:23:27.613Z,5.20
2023-03-04T04:25:57.870Z,5.20
2023-03-04T04:28:24.975Z,5.20
2023-03-04T04:30:51.975Z,5.20
2023-03-04T04:33:19.069Z,5.20
2023-03-04T04:35:45.999Z,5.20
2023-03-04T04:38:13.254Z,5.10
2023-03-04T04:40:40.252Z,5.10
2023-03-04T04:43:07.310Z,5.10
2023-03-04T04:45:34.694Z,5.10
2023-03-04T04:48:01.643Z,5.10
2023-03-04T04:50:29.435Z,5.10
2023-03-04T04:52:57.198Z,5.10
2023-03-04T04:55:24.173Z,5.10
2023-03-04T04:57:51.107Z,5.10
2023-03-04T05:00:19.112Z,5.10
2023-03-04T05:02:46.025Z,5.10
2023-03-04T05:05:12.954Z,5.10
2023-03-04T05:07:39.903Z,5.10
2023-03-04T05:10:07.107Z,5.10
2023-03-04T05:12:35.297Z,5.10
2023-03-04T05:15:03.098Z,5.10
2023-03-04T05:17:30.076Z,5.10
2023-03-04T05:19:57.028Z,5.10
2023-03-04T05:22:23.898Z,5.10
2023-03-04T05:24:51.615Z,5.00
2023-03-04T05:27:18.602Z,5.00
2023-03-04T05:29:46.912Z,5.10
2023-03-04T05:32:13.934Z,5.00
2023-03-04T05:34:40.895Z,5.00
2023-03-04T05:37:07.837Z,5.00
2023-03-04T05:39:34.768Z,5.00
2023-03-04T05:42:01.774Z,5.00
2023-03-04T05:44:28.711Z,5.00
2023-03-04T05:46:55.764Z,5.00
2023-03-04T05:49:22.751Z,5.00
2023-03-04T05:51:49.676Z,5.00
2023-03-04T05:54:16.622Z,5.00
2023-03-04T05:56:44.899Z,5.00
2023-03-04T05:59:11.934Z,5.00
2023-03-04T06:01:38.869Z,5.00
2023-03-04T06:04:05.889Z,5.00
2023-03-04T06:06:32.816Z,5.00
2023-03-04T06:09:00.507Z,5.00
2023-03-04T06:11:27.517Z,5.00
2023-03-04T06:13:54.427Z,5.00
2023-03-04T06:16:21.754Z,5.00
2023-03-04T06:18:48.693Z,5.00
2023-03-04T06:21:15.582Z,5.00
2023-03-04T06:23:42.430Z,5.00
2023-03-04T06:26:12.237Z,5.00
2023-03-04T06:28:39.074Z,5.00
2023-03-04T06:31:05.997Z,5.00
2023-03-04T06:33:33.061Z,5.00
2023-03-04T06:36:00.031Z,5.00
2023-03-04T06:38:27.016Z,5.00
2023-03-04T06:40:57.040Z,5.00
2023-03-04T06:43:24.418Z,5.00
2023-03-04T06:45:51.422Z,5.00
2023-03-04T06:48:18.420Z,5.00
2023-03-04T06:50:45.400Z,5.00
2023-03-04T06:53:12.396Z,5.00
2023-03-04T06:55:39.342Z,5.00
2023-03-04T06:58:06.249Z,5.00
2023-03-04T07:00:33.213Z,5.00
2023-03-04T07:03:06.693Z,5.10
2023-03-04T07:05:33.670Z,5.00
2023-03-04T07:08:00.581Z,5.10
2023-03-04T07:10:27.484Z,5.00
2023-03-04T07:12:54.408Z,5.10
2023-03-04T07:15:21.317Z,5.10
2023-03-04T07:17:48.254Z,5.10
2023-03-04T07:20:15.407Z,5.10
2023-03-04T07:22:42.289Z,5.10
2023-03-04T07:25:09.431Z,5.10
2023-03-04T07:27:38.649Z,5.10
2023-03-04T07:30:06.138Z,5.10
2023-03-04T07:32:34.580Z,5.10
2023-03-04T07:35:01.963Z,5.10
2023-03-04T07:37:28.941Z,5.10
2023-03-04T07:39:55.876Z,5.10
2023-03-04T07:42:22.818Z,5.10
2023-03-04T07:44:57.907Z,5.10
2023-03-04T07:47:24.839Z,5.10
2023-03-04T07:49:51.677Z,5.10
2023-03-04T07:52:18.682Z,5.10
2023-03-04T07:54:45.577Z,5.10
2023-03-04T07:57:14.372Z,5.20
2023-03-04T07:59:41.292Z,5.10
2023-03-04T08:02:08.324Z,5.20
2023-03-04T08:04:35.411Z,5.20
2023-03-04T08:07:02.488Z,5.20
2023-03-04T08:09:29.519Z,5.20
2023-03-04T08:11:56.452Z,5.20
2023-03-04T08:14:23.531Z,5.20
2023-03-04T08:16:50.651Z,5.20
2023-03-04T08:19:17.660Z,5.20
2023-03-04T08:21:44.558Z,5.20
2023-03-04T08:24:11.667Z,5.20
2023-03-04T08:26:42.000Z,5.20
2023-03-04T08:29:10.614Z,5.30
2023-03-04T08:31:38.452Z,5.30
2023-03-04T08:34:05.863Z,5.30
2023-03-04T08:36:32.854Z,5.30
2023-03-04T08:38:59.892Z,5.40
2023-03-04T08:41:27.585Z,5.40
2023-03-04T08:43:54.510Z,5.40
2023-03-04T08:46:21.483Z,5.40
2023-03-04T08:48:48.473Z,5.40
2023-03-04T08:51:17.043Z,5.40
2023-03-04T08:53:44.289Z,5.40
2023-03-04T08:56:11.807Z,5.40
2023-03-04T08:58:38.797Z,5.40
2023-03-04T09:01:07.515Z,5.40
2023-03-04T09:03:34.579Z,5.40
2023-03-04T09:06:02.562Z,5.40
2023-03-04T09:08:29.801Z,5.40
2023-03-04T09:10:56.820Z,5.40
2023-03-04T09:13:26.283Z,5.40
2023-03-04T09:15:53.617Z,5.40
2023-03-04T09:18:21.768Z,5.50
2023-03-04T09:20:48.876Z,5.50
2023-03-04T09:23:15.827Z,5.50
2023-03-04T09:25:43.133Z,5.50
2023-03-04T09:28:10.978Z,5.60
2023-03-04T09:30:37.936Z,5.60
2023-03-04T09:33:04.852Z,5.60
2023-03-04T09:35:31.808Z,5.60
2023-03-04T09:37:58.954Z,5.60
2023-03-04T09:40:52.251Z,5.60
2023-03-04T09:43:30.119Z,5.70
2023-03-04T09:45:58.852Z,5.70
2023-03-04T09:48:28.281Z,5.70
2023-03-04T09:50:59.560Z,5.70
2023-03-04T09:53:34.380Z,5.80
2023-03-04T09:56:02.481Z,5.80
2023-03-04T09:58:44.771Z,5.80
2023-03-04T10:01:21.763Z,5.90
2023-03-04T10:03:54.241Z,5.90
2023-03-04T10:06:22.602Z,5.90
2023-03-04T10:08:52.556Z,5.90
2023-03-04T10:11:32.528Z,5.90
2023-03-04T10:14:18.090Z,5.90
2023-03-04T10:17:05.319Z,5.90
2023-03-04T10:19:50.971Z,6.00
2023-03-04T10:22:21.052Z,6.00
2023-03-04T10:24:48.288Z,6.00
2023-03-04T10:27:17.210Z,6.00
2023-03-04T10:29:44.343Z,6.10
2023-03-04T10:32:16.456Z,6.10
2023-03-04T10:34:43.671Z,6.10
2023-03-04T10:37:11.792Z,6.10
2023-03-04T10:39:40.395Z,6.10
2023-03-04T10:42:23.415Z,6.10
2023-03-04T10:44:55.764Z,6.10
2023-03-04T10:47:27.700Z,6.10
2023-03-04T10:49:56.004Z,6.10
2023-03-04T10:52:29.673Z,6.10
2023-03-04T10:54:58.641Z,6.10
2023-03-04T10:57:36.709Z,6.10
2023-03-04T11:00:18.920Z,6.10
2023-03-04T11:02:46.801Z,6.10
2023-03-04T11:05:17.768Z,6.20
2023-03-04T11:07:57.359Z,6.20
2023-03-04T11:10:27.963Z,6.20
2023-03-04T11:13:02.611Z,6.20
2023-03-04T11:15:31.360Z,6.20
2023-03-04T11:18:02.749Z,6.20
2023-03-04T11:20:49.935Z,6.20
2023-03-04T11:23:43.246Z,6.20
2023-03-04T11:26:16.240Z,6.20
2023-03-04T11:29:01.791Z,6.30
2023-03-04T11:31:38.409Z,6.30
2023-03-04T11:34:13.778Z,6.40
2023-03-04T11:36:47.590Z,6.40
2023-03-04T11:39:20.476Z,6.50
2023-03-04T11:41:52.201Z,6.50
2023-03-04T11:44:19.184Z,6.60
2023-03-04T11:46:52.590Z,6.60
2023-03-04T11:49:46.162Z,6.60
2023-03-04T11:52:15.949Z,6.60
2023-03-04T11:55:01.804Z,6.70
2023-03-04T11:57:44.813Z,6.70
2023-03-04T12:00:30.718Z,6.80
2023-03-04T12:03:24.288Z,6.90
2023-03-04T12:06:06.595Z,7.00
2023-03-04T12:08:39.859Z,7.00
2023-03-04T12:11:12.704Z,7.10
2023-03-04T12:13:55.468Z,7.10
2023-03-04T12:16:28.647Z,7.20
2023-03-04T12:18:55.453Z,7.20
2023-03-04T12:21:42.614Z,7.20
2023-03-04T12:24:28.325Z,7.30
2023-03-04T12:26:58.615Z,7.40
2023-03-04T12:29:34.365Z,7.40
2023-03-04T12:32:07.534Z,7.50
2023-03-04T12:34:34.503Z,7.50
2023-03-04T12:37:01.421Z,7.50
2023-03-04T12:39:28.361Z,7.50
2023-03-04T12:42:01.382Z,7.50
2023-03-04T12:44:31.260Z,7.60
2023-03-04T12:47:11.973Z,7.60
2023-03-04T12:49:55.597Z,7.70
2023-03-04T12:52:25.318Z,7.80
2023-03-04T12:54:55.499Z,7.90
2023-03-04T12:57:26.222Z,7.90
2023-03-04T12:59:56.252Z,8.10
2023-03-04T13:02:39.410Z,8.20
2023-03-04T13:05:06.553Z,8.20
2023-03-04T13:07:43.251Z,8.30
2023-03-04T13:10:10.176Z,8.40
2023-03-04T13:12:47.812Z,8.40
2023-03-04T13:15:17.442Z,8.40
2023-03-04T13:17:47.578Z,8.40
2023-03-04T13:20:38.407Z,8.40
2023-03-04T13:23:14.529Z,8.40
2023-03-04T13:25:42.495Z,8.50
2023-03-04T13:28:09.739Z,8.50
2023-03-04T13:30:38.281Z,8.50
2023-03-04T13:33:11.568Z,8.50
2023-03-04T13:35:47.980Z,8.40
2023-03-04T13:38:31.735Z,8.40
2023-03-04T13:41:13.921Z,8.40
2023-03-04T13:43:44.815Z,8.40
2023-03-04T13:46:20.775Z,8.40
2023-03-04T13:48:50.984Z,8.40
2023-03-04T13:51:28.884Z,8.40
2023-03-04T13:53:59.610Z,8.40
2023-03-04T13:56:29.866Z,8.40
2023-03-04T13:59:03.053Z,8.40
2023-03-04T14:01:31.959Z,8.30
2023-03-04T14:03:59.738Z,8.30
2023-03-04T14:06:27.970Z,8.20
2023-03-04T14:08:55.548Z,8.20
2023-03-04T14:11:23.328Z,8.20
2023-03-04T14:13:50.246Z,8.20
2023-03-04T14:16:21.249Z,8.20
2023-03-04T14:19:17.359Z,8.20
2023-03-04T14:21:45.239Z,8.10
2023-03-04T14:24:13.623Z,8.10
2023-03-04T14:26:40.736Z,8.10
2023-03-04T14:29:29.566Z,8.10
2023-03-04T14:31:56.870Z,8.10
2023-03-04T14:34:30.083Z,8.10
2023-03-04T14:36:57.052Z,8.10
2023-03-04T14:39:25.897Z,8.10
2023-03-04T14:41:54.635Z,8.00
2023-03-04T14:44:27.587Z,8.00
2023-03-04T14:47:07.536Z,8.00
2023-03-04T14:49:39.574Z,8.00
2023-03-04T14:52:07.478Z,8.00
2023-03-04T14:54:36.238Z,8.00
2023-03-04T14:57:21.638Z,8.00
2023-03-04T14:59:48.593Z,8.00
2023-03-04T15:02:21.718Z,8.00
2023-03-04T15:04:49.532Z,8.00
2023-03-04T15:07:21.771Z,8.00
2023-03-04T15:09:56.371Z,8.00
2023-03-04T15:12:25.078Z,7.90
2023-03-04T15:14:54.558Z,7.90
2023-03-04T15:17:38.533Z,7.90
2023-03-04T15:20:11.685Z,7.90
2023-03-04T15:22:44.681Z,7.90
2023-03-04T15:25:15.583Z,7.90
2023-03-04T15:27:44.166Z,7.90
2023-03-04T15:30:20.224Z,7.80
2023-03-04T15:32:47.407Z,7.80
2023-03-04T15:35:15.177Z,7.70
2023-03-04T15:37:42.806Z,7.70
2023-03-04T15:40:18.995Z,7.70
2023-03-04T15:42:45.981Z,7.70
2023-03-04T15:45:21.079Z,7.60
2023-03-04T15:47:48.207Z,7.60
2023-03-04T15:50:15.664Z,7.60
2023-03-04T15:52:42.807Z,7.60
2023-03-04T15:55:20.257Z,7.60
2023-03-04T15:57:48.731Z,7.50
2023-03-04T16:00:16.044Z,7.50
2023-03-04T16:02:43.083Z,7.60
2023-03-04T16:05:10.342Z,7.50
2023-03-04T16:07:40.559Z,7.50
2023-03-04T16:10:20.181Z,7.50
2023-03-04T16:12:47.094Z,7.40
2023-03-04T16:15:15.806Z,7.40
2023-03-04T16:17:44.220Z,7.40
2023-03-04T16:20:12.871Z,7.40
2023-03-04T16:22:40.473Z,7.30
2023-03-04T16:25:10.309Z,7.30
2023-03-04T16:27:38.327Z,7.30
2023-03-04T16:30:05.965Z,7.30
2023-03-04T16:32:34.940Z,7.30
2023-03-04T16:35:02.494Z,7.30
2023-03-04T16:37:29.445Z,7.20
2023-03-04T16:39:56.542Z,7.20
2023-03-04T16:42:23.541Z,7.20
2023-03-04T16:44:50.449Z,7.20
2023-03-04T16:47:17.343Z,7.10
2023-03-04T16:49:44.542Z,7.10
2023-03-04T16:52:22.377Z,7.10
2023-03-04T16:54:49.898Z,7.10
2023-03-04T16:57:16.939Z,7.00
2023-03-04T16:59:45.861Z,7.00
2023-03-04T17:02:15.868Z,7.00
2023-03-04T17:04:43.278Z,6.90
2023-03-04T17:07:10.232Z,6.90
2023-03-04T17:09:37.795Z,6.80
2023-03-04T17:12:05.613Z,6.80
2023-03-04T17:14:32.623Z,6.70
2023-03-04T17:16:59.752Z,6.70
2023-03-04T17:19:26.954Z,6.60
2023-03-04T17:21:55.863Z,6.60
2023-03-04T17:24:22.893Z,6.50
2023-03-04T17:26:49.888Z,6.50
2023-03-04T17:29:16.980Z,6.50
2023-03-04T17:31:44.261Z,6.50
2023-03-04T17:34:11.321Z,6.40
2023-03-04T17:36:38.245Z,6.40
2023-03-04T17:39:05.740Z,6.40
2023-03-04T17:41:35.029Z,6.30
2023-03-04T17:44:03.093Z,6.30
2023-03-04T17:46:30.140Z,6.30
2023-03-04T17:48:59.181Z,6.30
2023-03-04T17:51:35.685Z,6.30
2023-03-04T17:54:05.463Z,6.30
2023-03-04T17:56:33.240Z,6.30
2023-03-04T17:59:01.158Z,6.30
2023-03-04T18:01:28.474Z,6.30
2023-03-04T18:03:55.686Z,6.30
2023-03-04T18:06:24.239Z,6.30
2023-03-04T18:08:54.176Z,6.30
2023-03-04T18:11:22.260Z,6.20
2023-03-04T18:13:49.395Z,6.30
2023-03-04T18:16:18.837Z,6.20
2023-03-04T18:18:45.900Z,6.20
2023-03-04T18:21:13.673Z,6.20
2023-03-04T18:23:40.577Z,6.20
2023-03-04T18:26:08.207Z,6.10
2023-03-04T18:28:35.319Z,6.10
2023-03-04T18:31:02.160Z,6.10
2023-03-04T18:33:29.618Z,6.10
2023-03-04T18:36:00.386Z,6.10
2023-03-04T18:38:27.684Z,6.10
2023-03-04T18:40:58.444Z,6.10
2023-03-04T18:43:26.379Z,6.00
2023-03-04T18:46:03.749Z,6.00
2023-03-04T18:48:32.376Z,6.00
2023-03-04T18:50:59.299Z,6.00
2023-03-04T18:53:27.374Z,5.90
2023-03-04T18:55:57.088Z,5.90
2023-03-04T18:58:23.965Z,5.80
2023-03-04T19:00:51.595Z,5.80
2023-03-04T19:03:18.574Z,5.80
2023-03-04T19:05:45.467Z,5.80
2023-03-04T19:08:12.412Z,5.70
2023-03-04T19:10:39.327Z,5.80
2023-03-04T19:13:06.534Z,5.80
2023-03-04T19:15:33.486Z,5.80
2023-03-04T19:18:00.387Z,5.80
2023-03-04T19:20:27.374Z,5.80
2023-03-04T19:22:57.270Z,5.80
2023-03-04T19:25:24.174Z,5.80
2023-03-04T19:27:54.402Z,5.80
2023-03-04T19:30:21.435Z,5.80
2023-03-04T19:32:49.122Z,5.80
2023-03-04T19:35:16.693Z,5.80
2023-03-04T19:37:43.639Z,5.80
2023-03-04T19:40:10.921Z,5.80
2023-03-04T19:42:37.865Z,5.80
2023-03-04T19:45:09.750Z,5.80
2023-03-04T19:47:37.845Z,5.80
2023-03-04T19:50:05.755Z,5.80
2023-03-04T19:52:33.108Z,5.80
2023-03-04T19:55:02.279Z,5.80
2023-03-04T19:57:29.530Z,5.70
2023-03-04T19:59:56.387Z,5.70
2023-03-04T20:02:23.265Z,5.70
2023-03-04T20:04:50.179Z,5.70
2023-03-04T20:07:17.080Z,5.70
2023-03-04T20:09:44.268Z,5.70
2023-03-04T20:12:13.012Z,5.70
2023-03-04T20:14:39.946Z,5.70
2023-03-04T20:17:07.216Z,5.70
2023-03-04T20:19:34.981Z,5.70
2023-03-04T20:22:02.569Z,5.70
2023-03-04T20:24:29.557Z,5.70
2023-03-04T20:26:56.513Z,5.70
2023-03-04T20:29:23.470Z,5.70
2023-03-04T20:31:50.390Z,5.70
2023-03-04T20:34:17.432Z,5.70
2023-03-04T20:36:44.476Z,5.70
2023-03-04T20:39:26.941Z,5.70
2023-03-04T20:41:55.084Z,5.70
2023-03-04T20:44:21.961Z,5.70
2023-03-04T20:46:48.896Z,5.70
2023-03-04T20:49:23.290Z,5.70
2023-03-04T20:51:51.128Z,5.70
2023-03-04T20:54:18.213Z,5.70
2023-03-04T20:56:45.176Z,5.70
2023-03-04T20:59:12.052Z,5.70
2023-03-04T21:01:40.100Z,5.70
2023-03-04T21:04:07.184Z,5.80
2023-03-04T21:06:34.323Z,5.70
2023-03-04T21:09:02.431Z,5.70
2023-03-04T21:11:29.464Z,5.70
2023-03-04T21:13:57.803Z,5.80
2023-03-04T21:16:30.048Z,5.80
2023-03-04T21:18:57.082Z,5.80
2023-03-04T21:21:28.400Z,5.80
2023-03-04T21:23:56.458Z,5.80
2023-03-04T21:26:23.933Z,5.80
2023-03-04T21:28:52.260Z,5.80
2023-03-04T21:31:20.667Z,5.80
2023-03-04T21:33:47.671Z,5.80
2023-03-04T21:36:14.863Z,5.80
2023-03-04T21:38:42.064Z,5.80
2023-03-04T21:41:15.774Z,5.80
2023-03-04T21:43:43.291Z,5.80
2023-03-04T21:46:10.653Z,5.80
2023-03-04T21:48:37.847Z,5.80
2023-03-04T21:51:06.295Z,5.80
2023-03-04T21:53:33.808Z,5.80
2023-03-04T21:56:01.114Z,5.80
2023-03-04T21:58:28.178Z,5.80
2023-03-04T22:00:55.387Z,5.80
2023-03-04T22:03:23.123Z,5.80
2023-03-04T22:05:50.261Z,5.80
2023-03-04T22:08:18.916Z,5.80
2023-03-04T22:10:49.801Z,5.80
2023-03-04T22:13:16.796Z,5.80
2023-03-04T22:15:44.236Z,5.80
2023-03-04T22:18:13.222Z,5.80
2023-03-04T22:20:41.730Z,5.80
2023-03-04T22:23:09.069Z,5.80
2023-03-04T22:25:36.671Z,5.80
2023-03-04T22:28:03.773Z,5.80
2023-03-04T22:30:31.733Z,5.80
2023-03-04T22:32:58.659Z,5.80
2023-03-04T22:35:25.715Z,5.80
2023-03-04T22:37:52.717Z,5.80
2023-03-04T22:40:19.865Z,5.70
2023-03-04T22:42:47.538Z,5.70
2023-03-04T22:45:18.185Z,5.70
2023-03-04T22:47:51.910Z,5.70
2023-03-04T22:50:19.559Z,5.70
2023-03-04T22:52:47.449Z,5.70
2023-03-04T22:55:15.530Z,5.70
2023-03-04T22:57:43.232Z,5.70
2023-03-04T23:00:15.939Z,5.70
2023-03-04T23:02:42.801Z,5.80
2023-03-04T23:05:09.956Z,5.80
2023-03-04T23:07:36.897Z,5.80
2023-03-04T23:10:05.031Z,5.70
2023-03-04T23:12:32.981Z,5.70
2023-03-04T23:15:00.143Z,5.80
2023-03-04T23:17:27.150Z,5.80
2023-03-04T23:19:54.100Z,5.80
2023-03-04T23:22:21.097Z,5.80
2023-03-04T23:24:48.050Z,5.80
2023-03-04T23:27:14.980Z,5.80
2023-03-04T23:29:41.868Z,5.80
2023-03-04T23:32:08.930Z,5.80
2023-03-04T23:34:36.715Z,5.80
2023-03-04T23:37:03.896Z,5.80
2023-03-04T23:39:30.953Z,5.80
2023-03-04T23:41:57.936Z,5.80
2023-03-04T23:44:24.963Z,5.80
2023-03-04T23:46:51.928Z,5.70
2023-03-04T23:49:18.936Z,5.70
2023-03-04T23:51:45.842Z,5.70
2023-03-04T23:54:13.826Z,5.70
2023-03-04T23:56:42.542Z,5.70
2023-03-04T23:59:12.458Z,5.70
